Time;durP1;ratioP1;P1;durP2;ratioP2;P2;SDS_P1;SDS_P2;PMS_P1;PMS_P2;Temp;Humidity;BMP_temperature;BMP_pressure;BME280_temperature;BME280_humidity;BME280_pressure;Samples;Min_cycle;Max_cycle;Signal;HPM_P1;HPM_P2
2022/08/31 00:05:05;;;;;;;7.70;3.90;;;;;;;16.84;56.54;99281.98;105929;1276;108587;-68
2022/08/31 00:07:33;;;;;;;10.70;4.00;;;;;;;16.84;56.67;99277.67;105880;1276;97977;-69
2022/08/31 00:10:13;;;;;;;9.40;3.90;;;;;;;16.84;56.66;99274.27;105954;1276;95291;-69
2022/08/31 00:12:47;;;;;;;7.80;3.80;;;;;;;16.84;56.74;99275.16;105893;1276;111101;-68
2022/08/31 00:15:28;;;;;;;8.10;3.80;;;;;;;16.82;56.84;99270.28;105969;1276;97917;-68
2022/08/31 00:17:58;;;;;;;10.50;3.90;;;;;;;16.82;56.78;99271.92;105964;1277;107654;-69
2022/08/31 00:20:28;;;;;;;10.60;4.50;;;;;;;16.80;56.87;99273.32;105905;1276;95202;-68
2022/08/31 00:23:09;;;;;;;11.50;4.70;;;;;;;16.78;56.84;99276.26;105999;1276;97951;-68
2022/08/31 00:25:41;;;;;;;8.50;3.70;;;;;;;16.75;56.75;99275.41;106004;1276;112003;-66
2022/08/31 00:28:13;;;;;;;11.10;4.40;;;;;;;16.72;56.91;99277.86;105994;1276;97675;-67
2022/08/31 00:30:43;;;;;;;9.60;4.00;;;;;;;16.70;56.95;99276.83;105920;1276;105896;-68
2022/08/31 00:33:13;;;;;;;10.40;3.80;;;;;;;16.68;57.07;99273.78;106107;1276;97882;-68
2022/08/31 00:35:42;;;;;;;9.10;3.70;;;;;;;16.64;56.87;99274.89;106079;1276;97870;-70
2022/08/31 00:38:13;;;;;;;11.20;3.40;;;;;;;16.61;57.02;99276.05;105913;1276;112069;-68
2022/08/31 00:40:46;;;;;;;7.80;3.50;;;;;;;16.59;57.19;99273.40;105956;1276;97948;-67
2022/08/31 00:43:42;;;;;;;6.90;3.30;;;;;;;16.56;57.26;99274.91;105874;1276;107825;-67
2022/08/31 00:46:14;;;;;;;7.00;3.70;;;;;;;16.49;57.13;99277.48;105870;1276;97983;-69
2022/08/31 00:49:06;;;;;;;6.40;3.80;;;;;;;16.43;57.13;99273.98;105867;1276;95264;-68
2022/08/31 00:51:45;;;;;;;7.60;3.80;;;;;;;16.36;57.29;99269.25;105924;1276;112196;-65
2022/08/31 00:54:19;;;;;;;10.30;4.00;;;;;;;16.31;57.35;99270.92;105920;1276;97962;-69
2022/08/31 00:56:48;;;;;;;11.90;4.00;;;;;;;16.28;57.26;99271.98;105956;1276;107774;-69
2022/08/31 00:59:21;;;;;;;6.60;3.40;;;;;;;16.22;57.23;99270.71;105958;1276;95271;-67
2022/08/31 01:01:49;;;;;;;7.70;3.20;;;;;;;16.18;57.38;99268.94;105902;1276;95375;-67
2022/08/31 01:04:18;;;;;;;8.20;4.30;;;;;;;16.14;57.37;99272.55;105964;1276;112147;-68
2022/08/31 01:06:49;;;;;;;6.80;3.80;;;;;;;16.08;57.40;99274.68;105879;1277;96432;-67
2022/08/31 01:09:21;;;;;;;8.40;3.60;;;;;;;16.03;57.70;99274.77;105841;1276;108378;-65
2022/08/31 01:11:50;;;;;;;10.50;4.20;;;;;;;15.98;57.48;99274.34;106050;1276;95272;-67
2022/08/31 01:14:19;;;;;;;11.70;4.00;;;;;;;15.93;57.54;99277.86;106018;1276;97912;-66
2022/08/31 01:16:53;;;;;;;7.70;3.70;;;;;;;15.86;57.65;99278.80;105981;1276;113939;-67
2022/08/31 01:19:52;;;;;;;8.30;3.40;;;;;;;15.81;57.65;99276.98;106005;1276;95234;-66
2022/08/31 01:22:45;;;;;;;7.30;3.60;;;;;;;15.72;57.73;99280.23;105839;1276;107360;-66
2022/08/31 01:25:16;;;;;;;8.10;3.80;;;;;;;15.65;57.77;99276.92;106062;1276;97989;-66
2022/08/31 01:27:46;;;;;;;7.60;3.60;;;;;;;15.59;57.75;99278.85;105929;1277;97828;-65
2022/08/31 01:30:25;;;;;;;8.10;3.60;;;;;;;15.53;57.80;99278.95;105982;1276;112133;-65
2022/08/31 01:32:53;;;;;;;8.20;3.70;;;;;;;15.46;57.86;99280.23;105998;1276;97967;-66
2022/08/31 01:35:22;;;;;;;7.40;3.60;;;;;;;15.40;57.94;99282.06;105974;1276;107809;-67
2022/08/31 01:37:52;;;;;;;11.50;3.70;;;;;;;15.36;58.05;99283.48;105970;1276;98060;-66
2022/08/31 01:40:34;;;;;;;8.90;3.90;;;;;;;15.30;57.96;99278.77;106018;1274;97848;-66
2022/08/31 01:43:04;;;;;;;9.10;3.70;;;;;;;15.25;58.15;99280.17;106002;1276;111558;-66
2022/08/31 01:45:32;;;;;;;8.30;3.60;;;;;;;15.20;58.14;99282.05;105926;1276;97873;-66
2022/08/31 01:48:03;;;;;;;5.90;3.60;;;;;;;15.15;58.20;99281.40;105978;1276;108503;-67
2022/08/31 01:50:33;;;;;;;8.10;4.00;;;;;;;15.11;58.32;99283.35;105943;1276;96329;-67
2022/08/31 01:53:04;;;;;;;10.80;4.70;;;;;;;15.09;58.42;99282.12;105956;1276;97752;-68
2022/08/31 01:55:32;;;;;;;6.10;3.80;;;;;;;15.07;58.49;99284.23;106104;1276;111111;-67
2022/08/31 01:58:00;;;;;;;6.50;3.80;;;;;;;15.04;58.44;99281.97;106087;1276;95398;-68
2022/08/31 02:00:32;;;;;;;7.00;3.90;;;;;;;15.04;58.65;99283.09;106083;1276;108412;-67
2022/08/31 02:03:04;;;;;;;10.60;4.00;;;;;;;15.04;58.71;99285.34;105981;1276;97852;-68
2022/08/31 02:05:36;;;;;;;8.30;3.90;;;;;;;15.05;58.76;99286.05;105997;1276;97868;-70
2022/08/31 02:08:08;;;;;;;7.80;3.90;;;;;;;15.03;58.77;99284.05;105958;1277;111482;-68
2022/08/31 02:10:38;;;;;;;9.90;3.80;;;;;;;15.00;58.80;99285.87;106003;1276;97949;-68
2022/08/31 02:13:06;;;;;;;11.00;4.00;;;;;;;14.99;58.90;99288.34;106073;1276;107999;-67
2022/08/31 02:15:37;;;;;;;9.50;3.90;;;;;;;14.97;58.92;99287.25;106103;1276;97976;-67
2022/08/31 02:18:07;;;;;;;12.20;4.60;;;;;;;14.96;59.04;99289.81;106078;1276;97888;-66
2022/08/31 02:20:36;;;;;;;8.10;4.10;;;;;;;14.94;59.07;99283.36;106061;1276;111839;-67
2022/08/31 02:23:05;;;;;;;10.30;4.50;;;;;;;14.92;59.08;99284.30;106103;1276;95264;-68
2022/08/31 02:25:33;;;;;;;10.10;4.30;;;;;;;14.89;59.16;99288.10;106104;1276;108398;-72
2022/08/31 02:28:03;;;;;;;11.30;4.20;;;;;;;14.87;59.23;99287.34;105943;1276;97851;-67
2022/08/31 02:30:33;;;;;;;10.40;4.30;;;;;;;14.85;59.23;99285.21;105933;1277;97903;-65
2022/08/31 02:33:01;;;;;;;10.10;4.10;;;;;;;14.79;59.16;99283.09;105931;1277;112247;-67
2022/08/31 02:35:33;;;;;;;11.20;4.30;;;;;;;14.72;59.19;99282.55;105945;1278;96390;-66
2022/08/31 02:38:01;;;;;;;9.40;4.20;;;;;;;14.70;59.38;99281.17;105872;1277;108595;-68
2022/08/31 02:40:32;;;;;;;12.20;4.40;;;;;;;14.67;59.53;99279.79;105730;1278;97863;-67
2022/08/31 02:43:01;;;;;;;7.70;4.00;;;;;;;14.66;59.46;99281.31;105781;1281;97885;-68
2022/08/31 02:45:31;;;;;;;10.80;4.30;;;;;;;14.64;59.71;99279.50;105828;1280;111486;-65
2022/08/31 02:48:03;;;;;;;12.30;4.50;;;;;;;14.65;59.57;99277.98;105997;1277;98435;-68
2022/08/31 02:50:33;;;;;;;12.10;4.50;;;;;;;14.65;59.61;99273.92;105888;1278;109991;-68
2022/08/31 02:53:01;;;;;;;11.80;4.50;;;;;;;14.65;59.76;99271.58;105668;1281;95285;-68
2022/08/31 02:55:30;;;;;;;14.10;5.00;;;;;;;14.64;59.63;99278.05;105947;1278;95321;-71
2022/08/31 02:57:58;;;;;;;11.30;4.50;;;;;;;14.61;59.72;99280.33;105927;1278;112122;-66
2022/08/31 03:00:30;;;;;;;11.70;4.30;;;;;;;14.58;59.75;99276.98;105921;1278;95247;-67
2022/08/31 03:02:59;;;;;;;12.70;4.70;;;;;;;14.54;59.92;99277.66;105942;1277;107555;-67
2022/08/31 03:05:29;;;;;;;11.90;5.00;;;;;;;14.52;59.97;99279.45;105998;1277;97864;-70
2022/08/31 03:07:58;;;;;;;12.60;5.00;;;;;;;14.51;60.08;99279.95;106002;1276;97757;-69
2022/08/31 03:10:29;;;;;;;11.80;4.90;;;;;;;14.48;60.03;99277.88;106030;1277;111851;-71
2022/08/31 03:13:00;;;;;;;13.10;4.70;;;;;;;14.44;60.19;99277.30;106001;1277;95245;-67
2022/08/31 03:15:29;;;;;;;13.00;4.50;;;;;;;14.43;60.22;99275.27;106083;1276;107611;-65
2022/08/31 03:17:59;;;;;;;14.10;4.90;;;;;;;14.43;60.36;99273.06;106112;1276;98013;-68
2022/08/31 03:20:34;;;;;;;10.90;4.60;;;;;;;14.44;60.47;99272.65;105997;1276;97973;-70
2022/08/31 03:23:04;;;;;;;16.00;5.10;;;;;;;14.45;60.45;99274.01;105987;1277;112074;-68
2022/08/31 03:25:32;;;;;;;15.50;5.00;;;;;;;14.45;60.44;99276.45;106157;1276;97922;-66
2022/08/31 03:28:01;;;;;;;13.30;5.00;;;;;;;14.46;60.57;99278.21;105970;1276;108393;-68
2022/08/31 03:30:33;;;;;;;15.20;4.90;;;;;;;14.46;60.59;99280.88;105897;1276;95235;-67
2022/08/31 03:33:02;;;;;;;9.90;4.30;;;;;;;14.47;60.63;99277.96;105975;1276;97778;-68
2022/08/31 03:35:34;;;;;;;13.30;4.80;;;;;;;14.48;60.80;99283.92;105983;1275;112201;-70
2022/08/31 03:38:04;;;;;;;12.20;4.90;;;;;;;14.48;60.81;99284.23;105895;1276;98000;-69
2022/08/31 03:40:32;;;;;;;11.90;4.50;;;;;;;14.51;60.86;99281.73;105952;1276;107752;-68
2022/08/31 03:43:00;;;;;;;11.20;4.60;;;;;;;14.52;60.82;99282.68;105972;1276;96444;-67
2022/08/31 03:45:30;;;;;;;13.80;4.60;;;;;;;14.53;60.87;99282.25;105954;1276;97889;-70
2022/08/31 03:48:00;;;;;;;21.60;5.00;;;;;;;14.54;60.98;99287.13;106014;1276;111407;-67
2022/08/31 03:50:32;;;;;;;11.70;4.70;;;;;;;14.56;61.00;99285.20;106127;1276;97922;-68
2022/08/31 03:53:03;;;;;;;13.80;4.80;;;;;;;14.58;61.08;99289.50;103896;1276;2966831;-67
2022/08/31 03:55:35;;;;;;;14.70;5.50;;;;;;;14.59;61.12;99285.47;106150;1276;99133;-66
2022/08/31 03:58:05;;;;;;;12.40;4.40;;;;;;;14.60;61.12;99285.90;105969;1276;97817;-66
2022/08/31 04:00:37;;;;;;;14.30;4.70;;;;;;;14.61;61.21;99285.67;106042;1276;112075;-69
2022/08/31 04:03:05;;;;;;;12.00;4.70;;;;;;;14.61;61.21;99285.14;106005;1276;95372;-67
2022/08/31 04:05:43;;;;;;;11.80;4.50;;;;;;;14.61;61.16;99281.60;105772;1276;108925;-67
2022/08/31 04:08:14;;;;;;;10.90;4.60;;;;;;;14.61;61.26;99286.23;105921;1276;97957;-66
2022/08/31 04:10:46;;;;;;;11.60;4.90;;;;;;;14.59;61.27;99283.66;105988;1276;97864;-68
2022/08/31 04:13:14;;;;;;;12.40;5.00;;;;;;;14.58;61.27;99283.43;105827;1276;111671;-68
2022/08/31 04:15:42;;;;;;;8.10;4.50;;;;;;;14.57;61.37;99283.83;105837;1276;97730;-70
2022/08/31 04:18:12;;;;;;;9.70;4.70;;;;;;;14.58;61.39;99287.02;105934;1277;110565;-68
2022/08/31 04:20:40;;;;;;;11.40;4.70;;;;;;;14.57;61.39;99290.95;105995;1276;97896;-70
2022/08/31 04:23:09;;;;;;;13.90;5.40;;;;;;;14.58;61.47;99289.86;105897;1276;97963;-71
2022/08/31 04:25:41;;;;;;;15.10;5.70;;;;;;;14.58;61.53;99290.57;105798;1277;111444;-67
2022/08/31 04:28:10;;;;;;;12.10;5.30;;;;;;;14.58;61.58;99289.66;105907;1276;97966;-68
2022/08/31 04:30:42;;;;;;;14.40;5.40;;;;;;;14.58;61.59;99292.88;105856;1276;108609;-68
2022/08/31 04:33:10;;;;;;;15.30;6.40;;;;;;;14.58;61.68;99295.35;105889;1276;97558;-68
2022/08/31 04:35:41;;;;;;;17.10;7.10;;;;;;;14.60;61.76;99301.45;105839;1277;97871;-67
2022/08/31 04:38:09;;;;;;;15.50;6.80;;;;;;;14.61;61.88;99301.02;105849;1276;112056;-66
2022/08/31 04:40:42;;;;;;;19.10;7.20;;;;;;;14.62;61.89;99301.83;105711;1276;97863;-66
2022/08/31 04:43:10;;;;;;;21.10;6.90;;;;;;;14.63;61.94;99304.04;105840;1276;107876;-66
2022/08/31 04:45:42;;;;;;;13.80;6.40;;;;;;;14.63;62.03;99306.06;105993;1276;98022;-67
2022/08/31 04:48:13;;;;;;;17.40;6.50;;;;;;;14.63;62.04;99310.17;105868;1276;97853;-69
2022/08/31 04:50:42;;;;;;;16.20;7.30;;;;;;;14.64;62.14;99312.86;105960;1276;112436;-67
2022/08/31 04:53:11;;;;;;;16.10;6.90;;;;;;;14.66;62.12;99309.15;105943;1276;95546;-66
2022/08/31 04:55:42;;;;;;;14.30;7.20;;;;;;;14.68;62.19;99308.11;105857;1276;108779;-63
2022/08/31 04:58:12;;;;;;;16.60;7.20;;;;;;;14.69;62.28;99308.02;105943;1276;97524;-62
2022/08/31 05:00:44;;;;;;;15.90;6.80;;;;;;;14.72;62.27;99312.94;106031;1276;95668;-67
2022/08/31 05:03:11;;;;;;;17.60;6.70;;;;;;;14.75;62.30;99318.25;105851;1277;113945;-66
2022/08/31 05:05:41;;;;;;;17.20;7.80;;;;;;;14.78;62.37;99314.57;106086;1276;97909;-68
2022/08/31 05:08:11;;;;;;;15.40;6.50;;;;;;;14.79;62.34;99319.47;106637;1276;108339;-67
2022/08/31 05:10:40;;;;;;;16.30;6.60;;;;;;;14.80;62.53;99318.50;105795;1275;97927;-67
2022/08/31 05:13:08;;;;;;;17.30;7.20;;;;;;;14.86;62.50;99315.69;105980;1276;97447;-69
2022/08/31 05:15:41;;;;;;;16.00;6.70;;;;;;;14.92;62.61;99314.78;105654;1277;112280;-68
2022/08/31 05:18:12;;;;;;;17.20;7.20;;;;;;;14.98;62.67;99315.37;105767;1276;97991;-70
2022/08/31 05:20:40;;;;;;;15.20;7.10;;;;;;;15.04;62.64;99313.43;105935;1276;108393;-69
2022/08/31 05:23:09;;;;;;;16.50;6.90;;;;;;;15.09;62.71;99312.06;105892;1276;96943;-68
2022/08/31 05:25:39;;;;;;;16.40;6.40;;;;;;;15.14;62.77;99317.35;105944;1276;97969;-67
2022/08/31 05:28:07;;;;;;;16.60;6.80;;;;;;;15.19;62.84;99319.66;105972;1276;111858;-68
2022/08/31 05:30:36;;;;;;;17.90;7.50;;;;;;;15.23;62.95;99321.96;105868;1276;97960;-67
2022/08/31 05:33:05;;;;;;;14.90;6.80;;;;;;;15.26;62.98;99324.69;105875;1277;108489;-69
2022/08/31 05:35:34;;;;;;;14.90;7.10;;;;;;;15.29;62.92;99322.45;105974;1276;97989;-70
2022/08/31 05:38:04;;;;;;;16.70;6.40;;;;;;;15.32;63.05;99324.02;105946;1276;99148;-70
2022/08/31 05:40:32;;;;;;;18.50;7.50;;;;;;;15.35;63.04;99328.40;105989;1276;112049;-67
2022/08/31 05:43:02;;;;;;;18.30;7.60;;;;;;;15.39;63.12;99332.90;106086;1276;95633;-68
2022/08/31 05:45:32;;;;;;;13.60;6.60;;;;;;;15.41;63.11;99330.70;106036;1276;107752;-68
2022/08/31 05:48:01;;;;;;;14.90;6.80;;;;;;;15.44;63.21;99330.16;105939;1276;97929;-67
2022/08/31 05:50:31;;;;;;;18.90;6.90;;;;;;;15.46;63.23;99334.54;106082;1274;95256;-67
2022/08/31 05:53:00;;;;;;;18.50;6.90;;;;;;;15.49;63.23;99332.53;106017;1276;111808;-69
2022/08/31 05:55:31;;;;;;;15.10;6.70;;;;;;;15.51;63.31;99332.89;105978;1275;99274;-69
2022/08/31 05:57:59;;;;;;;16.60;7.20;;;;;;;15.55;63.37;99333.27;105940;1276;108368;-67
2022/08/31 06:00:27;;;;;;;16.60;6.90;;;;;;;15.58;63.39;99336.40;105826;1276;99400;-69
2022/08/31 06:02:58;;;;;;;14.40;6.50;;;;;;;15.61;63.48;99340.39;106002;1276;96629;-69
2022/08/31 06:05:28;;;;;;;14.90;6.50;;;;;;;15.63;63.42;99344.11;106066;1276;113634;-69
2022/08/31 06:07:57;;;;;;;17.90;6.60;;;;;;;15.65;63.54;99342.23;106020;1276;100404;-68
2022/08/31 06:10:27;;;;;;;17.50;6.50;;;;;;;15.67;63.39;99346.86;105956;1276;108348;-68
2022/08/31 06:12:55;;;;;;;14.40;6.50;;;;;;;15.69;63.56;99347.59;106074;1276;96954;-68
2022/08/31 06:15:23;;;;;;;17.90;6.20;;;;;;;15.72;63.67;99348.36;105894;1276;99290;-68
2022/08/31 06:17:51;;;;;;;15.20;6.20;;;;;;;15.75;63.72;99351.08;105872;1276;113358;-69
2022/08/31 06:20:20;;;;;;;14.50;5.70;;;;;;;15.80;63.71;99351.10;105978;1276;99322;-69
2022/08/31 06:22:50;;;;;;;16.20;6.00;;;;;;;15.83;63.77;99350.94;106074;1276;106879;-70
2022/08/31 06:25:19;;;;;;;15.40;5.70;;;;;;;15.88;63.70;99348.97;106011;1276;97706;-68
2022/08/31 06:27:58;;;;;;;13.00;5.70;;;;;;;15.92;63.83;99351.77;105969;1276;99264;-68
2022/08/31 06:30:26;;;;;;;12.30;5.80;;;;;;;15.95;63.78;99353.86;105973;1276;113531;-69
2022/08/31 06:32:55;;;;;;;13.10;5.50;;;;;;;15.98;63.86;99352.20;106001;1276;96733;-68
2022/08/31 06:35:28;;;;;;;18.80;6.60;;;;;;;16.01;64.07;99346.70;105885;1276;108719;-68
2022/08/31 06:37:58;;;;;;;17.60;7.00;;;;;;;16.06;63.99;99348.42;106063;1276;99235;-70
2022/08/31 06:40:28;;;;;;;16.10;6.60;;;;;;;16.11;64.12;99353.87;106101;1276;99243;-69
2022/08/31 06:42:58;;;;;;;15.10;6.40;;;;;;;16.16;64.01;99350.71;106091;1276;114416;-69
2022/08/31 06:45:26;;;;;;;17.60;6.70;;;;;;;16.19;64.09;99349.89;105963;1275;99304;-69
2022/08/31 06:47:57;;;;;;;15.80;6.60;;;;;;;16.21;64.01;99358.32;105951;1276;108848;-71
2022/08/31 06:50:26;;;;;;;17.80;7.50;;;;;;;16.24;64.08;99363.94;105942;1276;99336;-71
2022/08/31 06:52:56;;;;;;;15.90;7.30;;;;;;;16.25;64.09;99364.02;105968;1276;97955;-72
2022/08/31 06:55:24;;;;;;;15.30;7.00;;;;;;;16.27;64.17;99367.76;105957;1277;111852;-70
2022/08/31 06:57:53;;;;;;;15.80;6.80;;;;;;;16.30;64.27;99371.96;105923;1275;99602;-70
2022/08/31 07:00:21;;;;;;;14.40;6.40;;;;;;;16.32;64.13;99372.33;105960;1276;108599;-71
2022/08/31 07:02:51;;;;;;;15.10;6.50;;;;;;;16.35;64.17;99372.23;105884;1276;99313;-73
2022/08/31 07:05:26;;;;;;;13.60;6.60;;;;;;;16.38;64.23;99374.30;106096;1276;99142;-67
2022/08/31 07:07:54;;;;;;;13.10;6.00;;;;;;;16.39;64.17;99376.39;105970;1274;112224;-69
2022/08/31 07:10:23;;;;;;;18.10;6.10;;;;;;;16.38;64.31;99378.42;105835;1276;99302;-68
2022/08/31 07:12:53;;;;;;;17.10;6.20;;;;;;;16.40;64.30;99375.91;105943;1276;107857;-70
2022/08/31 07:15:21;;;;;;;17.20;6.80;;;;;;;16.40;64.46;99375.17;105758;1276;99361;-69
2022/08/31 07:17:50;;;;;;;10.90;5.50;;;;;;;16.43;64.27;99377.67;105943;1276;97832;-69
2022/08/31 07:20:19;;;;;;;16.40;5.70;;;;;;;16.44;64.49;99384.10;105889;1275;113383;-69
2022/08/31 07:22:47;;;;;;;13.30;4.90;;;;;;;16.45;64.50;99382.02;105984;1276;99345;-69
2022/08/31 07:25:17;;;;;;;13.00;4.70;;;;;;;16.46;64.44;99381.25;105818;1274;108250;-68
2022/08/31 07:27:45;;;;;;;12.50;5.00;;;;;;;16.47;64.53;99387.95;105730;1274;99184;-69
2022/08/31 07:30:13;;;;;;;11.90;5.20;;;;;;;16.49;64.65;99390.95;105922;1275;99239;-69
2022/08/31 07:32:42;;;;;;;15.40;5.20;;;;;;;16.51;64.47;99391.30;105915;1276;113410;-68
2022/08/31 07:35:10;;;;;;;15.50;4.50;;;;;;;16.54;64.64;99391.30;105955;1276;99317;-67
2022/08/31 07:43:17;;;;;;;11.30;4.20;;;;;;;16.63;64.69;99400.48;105989;1276;99196;-67
2022/08/31 07:45:47;;;;;;;11.60;4.00;;;;;;;16.67;64.85;99403.86;106047;1274;112771;-67
2022/08/31 07:48:18;;;;;;;11.50;4.50;;;;;;;16.71;64.80;99406.73;105857;1276;99371;-67
2022/08/31 07:50:46;;;;;;;10.60;4.00;;;;;;;16.73;64.73;99407.41;106027;1275;106385;-65
2022/08/31 07:53:15;;;;;;;14.70;4.90;;;;;;;16.75;64.78;99413.48;106025;1274;99265;-66
2022/08/31 07:55:46;;;;;;;13.40;4.60;;;;;;;16.76;64.92;99413.96;105873;1276;99358;-68
2022/08/31 07:58:16;;;;;;;13.20;4.80;;;;;;;16.77;64.92;99414.77;106032;1277;112780;-70
2022/08/31 08:00:46;;;;;;;10.60;4.10;;;;;;;16.79;64.88;99415.27;105999;1276;99329;-69
2022/08/31 08:03:15;;;;;;;11.20;4.90;;;;;;;16.82;64.96;99421.81;105860;1276;108693;-70
2022/08/31 08:05:46;;;;;;;9.70;4.50;;;;;;;16.83;65.10;99420.09;105907;1276;97604;-67
2022/08/31 08:08:21;;;;;;;13.60;5.60;;;;;;;16.85;64.89;99418.87;106016;1276;99234;-68
2022/08/31 08:10:49;;;;;;;11.10;4.50;;;;;;;16.87;65.04;99418.67;105890;1276;111923;-68
2022/08/31 08:13:20;;;;;;;10.30;4.70;;;;;;;16.88;64.96;99417.32;105858;1274;99230;-69
2022/08/31 08:15:50;;;;;;;10.20;4.40;;;;;;;16.89;65.07;99418.27;105854;1276;109227;-70
2022/08/31 08:18:20;;;;;;;9.90;3.90;;;;;;;16.90;64.97;99418.36;105906;1276;99343;-70
2022/08/31 08:20:48;;;;;;;9.90;3.90;;;;;;;16.93;65.09;99414.02;105803;1276;99248;-69
2022/08/31 08:23:18;;;;;;;7.60;3.90;;;;;;;16.96;65.19;99412.29;105881;1276;113427;-68
2022/08/31 08:26:06;;;;;;;10.60;3.70;;;;;;;17.00;65.02;99412.16;105804;1276;99225;-69
2022/08/31 08:28:36;;;;;;;8.70;3.40;;;;;;;17.03;65.19;99409.55;105734;1276;107549;-69
2022/08/31 08:31:15;;;;;;;9.90;4.00;;;;;;;17.07;65.06;99406.11;105873;1276;99298;-71
2022/08/31 08:33:44;;;;;;;14.60;3.80;;;;;;;17.10;64.94;99407.71;105792;1276;99224;-71
2022/08/31 08:36:16;;;;;;;12.30;3.80;;;;;;;17.15;65.16;99405.31;105724;1276;112701;-68
2022/08/31 08:38:49;;;;;;;13.10;3.70;;;;;;;17.18;65.10;99405.38;105879;1276;99249;-68
2022/08/31 08:41:20;;;;;;;9.70;3.80;;;;;;;17.21;65.03;99410.50;105701;1276;107813;-69
2022/08/31 08:43:59;;;;;;;9.40;4.10;;;;;;;17.23;64.97;99408.89;105727;1276;99369;-69
2022/08/31 08:46:42;;;;;;;11.80;4.10;;;;;;;17.26;65.27;99403.70;105710;1276;99239;-69
2022/08/31 08:49:27;;;;;;;9.50;4.50;;;;;;;17.32;65.25;99402.45;105778;1276;112341;-70
2022/08/31 08:52:03;;;;;;;9.80;3.90;;;;;;;17.38;65.21;99402.65;106033;1276;99340;-68
2022/08/31 08:54:44;;;;;;;7.60;3.80;;;;;;;17.43;65.16;99400.52;105820;1276;108340;-68
2022/08/31 08:57:41;;;;;;;8.60;3.80;;;;;;;17.50;65.32;99402.52;105835;1276;99262;-69
2022/08/31 09:00:20;;;;;;;10.20;4.40;;;;;;;17.57;65.17;99403.86;105969;1276;99239;-69
2022/08/31 09:03:20;;;;;;;8.70;4.20;;;;;;;17.58;64.88;99406.45;105901;1276;112887;-69
2022/08/31 09:06:08;;;;;;;12.50;4.10;;;;;;;17.61;65.07;99409.39;105428;1276;99357;-68
2022/08/31 09:09:20;;;;;;;12.70;4.60;;;;;;;17.69;65.36;99412.58;105830;1276;108408;-67
2022/08/31 09:12:10;;;;;;;7.90;3.90;;;;;;;17.77;65.21;99415.60;105890;1276;99306;-68
2022/08/31 09:14:47;;;;;;;13.80;4.30;;;;;;;17.85;65.42;99416.17;105991;1276;97671;-70
2022/08/31 09:17:50;;;;;;;16.60;5.40;;;;;;;17.91;65.48;99414.20;105862;1276;112766;-69
2022/08/31 09:20:18;;;;;;;10.50;4.10;;;;;;;17.98;65.26;99417.08;106026;1276;98373;-68
2022/08/31 09:22:57;;;;;;;8.00;4.00;;;;;;;18.03;65.34;99423.30;105720;1276;108140;-69
2022/08/31 09:25:57;;;;;;;9.80;4.00;;;;;;;18.06;65.19;99418.49;105879;1276;99214;-67
2022/08/31 09:28:37;;;;;;;8.20;3.60;;;;;;;18.13;65.46;99414.94;105759;1276;97676;-68
2022/08/31 09:31:05;;;;;;;15.30;5.00;;;;;;;18.23;65.29;99416.11;105937;1276;112802;-67
2022/08/31 09:33:49;;;;;;;14.50;6.00;;;;;;;18.30;65.12;99414.20;105905;1276;97967;-68
2022/08/31 09:36:22;;;;;;;15.50;5.50;;;;;;;18.36;65.11;99407.67;105911;1276;109888;-69
2022/08/31 09:38:51;;;;;;;16.70;5.30;;;;;;;18.42;65.15;99406.36;105798;1276;99412;-67
2022/08/31 09:41:30;;;;;;;11.50;4.20;;;;;;;18.48;65.14;99403.21;105823;1276;99229;-67
2022/08/31 09:44:20;;;;;;;13.60;4.20;;;;;;;18.53;65.13;99398.77;105920;1276;112943;-68
2022/08/31 09:46:52;;;;;;;12.20;4.20;;;;;;;18.60;65.12;99394.47;105918;1276;99227;-68
2022/08/31 09:49:33;;;;;;;8.40;3.70;;;;;;;18.68;65.07;99392.67;105953;1276;108247;-68
2022/08/31 09:52:19;;;;;;;9.30;4.30;;;;;;;18.77;65.07;99392.02;106025;1276;99285;-68
2022/08/31 09:55:16;;;;;;;15.20;4.10;;;;;;;18.88;65.08;99386.62;106010;1276;99255;-66
2022/08/31 09:57:52;;;;;;;10.90;3.70;;;;;;;19.02;65.01;99387.58;105848;1276;112176;-69
2022/08/31 10:00:38;;;;;;;15.00;4.40;;;;;;;19.12;64.92;99389.09;105972;1276;99262;-68
2022/08/31 10:03:29;;;;;;;12.60;3.90;;;;;;;19.25;64.90;99385.80;105843;1277;108452;-68
2022/08/31 10:06:00;;;;;;;11.60;3.70;;;;;;;19.34;64.79;99383.20;105937;1276;99299;-69
2022/08/31 10:08:56;;;;;;;12.20;4.20;;;;;;;19.43;64.80;99379.96;106002;1276;99247;-70
2022/08/31 10:11:31;;;;;;;7.30;3.00;;;;;;;19.58;64.70;99376.81;105873;1275;112765;-71
2022/08/31 10:22:04;;;;;;;8.60;3.10;;;;;;;20.10;64.24;99368.77;106418;1263;99313;-64
2022/08/31 10:24:43;;;;;;;;;;;;;;;20.26;64.31;99362.52;106034;1274;99334;-64
2022/08/31 10:27:19;;;;;;;10.30;3.00;;;;;;;20.37;64.02;99362.39;106029;1274;112915;-63
2022/08/31 10:30:05;;;;;;;9.60;2.90;;;;;;;20.52;63.85;99362.76;105964;1274;99265;-65
2022/08/31 10:32:40;;;;;;;12.60;4.40;;;;;;;20.67;63.91;99365.14;105988;1274;108722;-63
2022/08/31 10:35:13;;;;;;;8.70;3.20;;;;;;;20.78;63.71;99354.16;105942;1274;99272;-65
2022/08/31 10:38:07;;;;;;;10.20;3.10;;;;;;;20.89;63.88;99356.77;105914;1274;99788;-64
2022/08/31 10:40:42;;;;;;;10.20;3.30;;;;;;;21.08;63.54;99355.00;105875;1274;113632;-64
2022/08/31 10:43:20;;;;;;;6.90;2.70;;;;;;;21.28;63.52;99346.52;105904;1274;99301;-65
2022/08/31 10:45:52;;;;;;;8.90;3.30;;;;;;;21.41;63.52;99346.14;105873;1276;107732;-65
2022/08/31 10:48:23;;;;;;;7.20;2.80;;;;;;;21.57;63.17;99348.98;106007;1274;99290;-64
2022/08/31 10:51:19;;;;;;;8.30;2.60;;;;;;;21.66;62.84;99342.00;105912;1274;96699;-63
2022/08/31 10:54:01;;;;;;;8.10;2.70;;;;;;;21.81;62.87;99336.86;105854;1274;112854;-63
2022/08/31 10:57:01;;;;;;;9.10;3.10;;;;;;;21.91;63.00;99336.81;105853;1274;98471;-63
2022/08/31 10:59:34;;;;;;;10.30;2.80;;;;;;;21.86;62.66;99332.52;105929;1274;106792;-65
2022/08/31 11:02:39;;;;;;;5.60;2.50;;;;;;;21.82;62.62;99331.76;105853;1274;99483;-65
2022/08/31 11:05:18;;;;;;;8.30;2.70;;;;;;;21.82;62.30;99324.61;105821;1277;96707;-69
2022/08/31 11:08:05;;;;;;;7.40;2.40;;;;;;;21.88;62.51;99325.05;105923;1274;112939;-69
2022/08/31 11:10:44;;;;;;;8.20;3.20;;;;;;;21.94;61.92;99328.16;105762;1274;99306;-70
2022/08/31 11:13:40;;;;;;;17.30;7.80;;;;;;;21.91;61.97;99324.94;105871;1274;107756;-71
2022/08/31 11:17:05;;;;;;;4.90;2.60;;;;;;;21.92;61.79;99317.91;105871;1274;99278;-70
2022/08/31 11:19:51;;;;;;;8.70;2.80;;;;;;;21.89;61.71;99315.63;105796;1274;96658;-70
2022/08/31 11:22:41;;;;;;;3.50;2.10;;;;;;;21.92;61.50;99307.33;105965;1274;113380;-69
2022/08/31 11:25:25;;;;;;;6.00;2.20;;;;;;;21.95;61.27;99307.44;105992;1274;97909;-68
2022/08/31 11:28:17;;;;;;;6.40;2.00;;;;;;;21.99;61.16;99305.55;105761;1277;108470;-70
2022/08/31 11:30:47;;;;;;;5.10;2.20;;;;;;;22.07;61.05;99298.72;105762;1274;99317;-68
2022/08/31 11:33:27;;;;;;;4.20;1.50;;;;;;;22.17;60.92;99293.49;105902;1274;100414;-70
2022/08/31 11:36:05;;;;;;;4.90;1.80;;;;;;;22.26;60.63;99285.80;105845;1274;112846;-70
2022/08/31 11:38:51;;;;;;;13.30;3.00;;;;;;;22.34;60.48;99281.85;105834;1274;98167;-67
2022/08/31 11:41:48;;;;;;;4.40;1.80;;;;;;;22.51;60.25;99273.18;105930;1274;108034;-69
2022/08/31 11:44:28;;;;;;;5.10;1.60;;;;;;;22.68;59.76;99271.14;105839;1274;96649;-69
2022/08/31 11:47:05;;;;;;;5.80;1.90;;;;;;;22.82;59.70;99274.63;105829;1274;99324;-68
2022/08/31 11:49:50;;;;;;;6.30;2.10;;;;;;;22.96;59.49;99279.19;105864;1274;113362;-69
2022/08/31 11:52:27;;;;;;;5.40;1.70;;;;;;;23.07;59.30;99274.88;105990;1274;99279;-66
2022/08/31 11:55:09;;;;;;;4.50;1.50;;;;;;;23.20;58.85;99276.72;105980;1274;107764;-69
2022/08/31 11:58:06;;;;;;;4.60;1.90;;;;;;;23.30;58.61;99277.91;105911;1274;98145;-68
2022/08/31 12:00:50;;;;;;;3.90;1.40;;;;;;;23.36;58.44;99272.35;105932;1274;100353;-66
2022/08/31 12:03:50;;;;;;;3.30;1.20;;;;;;;23.36;58.22;99274.27;105908;1274;113221;-67
2022/08/31 12:06:27;;;;;;;6.60;1.70;;;;;;;23.33;57.96;99272.52;105932;1274;99310;-69